Time;durP1;ratioP1;P1;durP2;ratioP2;P2;SDS_P1;SDS_P2;PMS_P1;PMS_P2;Temp;Humidity;BMP_temperature;BMP_pressure;BME280_temperature;BME280_humidity;BME280_pressure;Samples;Min_cycle;Max_cycle;Signal;HPM_P1;HPM_P2
2021/04/25 00:02:27;;;;;;;11.75;8.13;;;;;;;11.42;52.95;101233.53;1782229;80;21585;-68
2021/04/25 00:04:55;;;;;;;11.05;7.50;;;;;;;11.35;53.19;101232.68;1782101;80;21146;-52
2021/04/25 00:07:22;;;;;;;11.57;7.30;;;;;;;11.34;53.17;101232.66;1780680;80;21569;-52
2021/04/25 00:09:50;;;;;;;11.50;7.67;;;;;;;11.29;53.17;101230.05;1760163;80;21139;-52
2021/04/25 00:12:17;;;;;;;11.55;7.15;;;;;;;11.30;53.32;101231.35;1751364;81;21126;-52
2021/04/25 00:14:46;;;;;;;11.03;7.30;;;;;;;11.29;53.39;101233.55;1754957;80;21178;-68
2021/04/25 00:17:13;;;;;;;11.48;8.33;;;;;;;11.26;53.59;101231.38;1779610;80;21159;-53
2021/04/25 00:19:43;;;;;;;11.20;7.62;;;;;;;11.24;53.68;101230.07;1752433;80;21118;-68
2021/04/25 00:22:10;;;;;;;11.97;7.95;;;;;;;11.26;53.83;101229.59;1751205;81;21119;-52
2021/04/25 00:24:38;;;;;;;12.37;8.33;;;;;;;11.27;53.83;101230.49;1752049;80;21585;-68
2021/04/25 00:27:06;;;;;;;12.70;8.28;;;;;;;11.27;53.85;101229.17;1759919;80;21248;-68
2021/04/25 00:29:33;;;;;;;13.28;8.50;;;;;;;11.29;53.89;101231.37;1724627;82;21134;-53
2021/04/25 00:32:01;;;;;;;11.35;8.10;;;;;;;11.28;53.86;101226.98;1751289;82;21142;-52
2021/04/25 00:34:29;;;;;;;12.55;7.85;;;;;;;11.30;53.91;101223.90;1755810;80;21118;-52
2021/04/25 00:36:56;;;;;;;13.78;9.10;;;;;;;11.28;53.85;101225.66;1752768;80;21608;-68
2021/04/25 00:39:24;;;;;;;13.35;8.05;;;;;;;11.26;53.86;101226.09;1751292;82;21182;-53
2021/04/25 00:41:52;;;;;;;14.18;9.05;;;;;;;11.22;54.01;101220.39;1751280;82;21158;-52
2021/04/25 00:44:20;;;;;;;12.93;8.55;;;;;;;11.22;54.01;101223.03;1757943;80;21149;-68
2021/04/25 00:46:47;;;;;;;10.63;7.53;;;;;;;11.26;54.02;101220.83;1777790;80;21183;-68
2021/04/25 00:49:16;;;;;;;12.82;8.13;;;;;;;11.29;53.92;101222.14;1782070;80;21304;-68
2021/04/25 00:51:44;;;;;;;13.48;8.00;;;;;;;11.29;53.72;101221.69;1782461;80;21304;-68
2021/04/25 00:54:12;;;;;;;10.23;7.87;;;;;;;11.22;53.86;101225.23;1781500;79;21139;-53
2021/04/25 00:56:39;;;;;;;12.50;8.10;;;;;;;11.25;53.82;101229.19;1771108;81;21192;-68
2021/04/25 00:59:07;;;;;;;12.53;7.40;;;;;;;11.24;53.67;101223.48;1770863;80;21175;-68
2021/04/25 01:01:35;;;;;;;10.88;7.65;;;;;;;11.19;53.29;101225.66;1773384;79;21151;-52
2021/04/25 01:04:03;;;;;;;10.90;7.67;;;;;;;11.14;53.32;101221.28;1786814;79;21150;-53
2021/04/25 01:06:31;;;;;;;12.23;7.25;;;;;;;11.12;53.17;101215.58;1802396;79;21167;-68
2021/04/25 01:08:59;;;;;;;11.65;7.30;;;;;;;11.10;53.25;101218.66;1802374;79;21182;-52
2021/04/25 01:11:27;;;;;;;12.33;7.33;;;;;;;11.10;53.38;101210.75;1801458;79;21309;-52
2021/04/25 01:13:54;;;;;;;10.93;7.28;;;;;;;11.10;53.48;101209.44;1795982;79;21273;-60
2021/04/25 01:16:22;;;;;;;9.70;6.72;;;;;;;11.12;53.52;101203.73;1802470;79;21195;-67
2021/04/25 01:18:50;;;;;;;9.13;7.05;;;;;;;11.13;53.58;101198.90;1802584;79;21624;-68
2021/04/25 01:21:17;;;;;;;10.03;6.22;;;;;;;11.11;53.57;101198.02;1797775;79;21184;-69
2021/04/25 01:23:45;;;;;;;8.95;6.47;;;;;;;11.10;53.51;101202.39;1770980;81;21631;-68
2021/04/25 01:26:14;;;;;;;10.58;6.58;;;;;;;11.14;53.38;101195.38;1771163;80;21166;-52
2021/04/25 01:28:42;;;;;;;10.00;6.95;;;;;;;11.16;53.31;101194.48;1771565;79;21143;-52
2021/04/25 01:31:10;;;;;;;9.28;6.70;;;;;;;11.12;53.49;101195.83;1786485;79;21120;-52
2021/04/25 01:33:38;;;;;;;10.35;6.70;;;;;;;11.12;53.51;101200.64;1771070;81;21179;-52
2021/04/25 01:36:07;;;;;;;12.53;6.47;;;;;;;11.13;53.39;101206.80;1771425;80;21135;-53
2021/04/25 01:38:34;;;;;;;9.73;6.25;;;;;;;11.12;53.29;101205.91;1771761;79;21585;-52
2021/04/25 01:41:02;;;;;;;12.18;6.42;;;;;;;11.12;53.24;101200.64;1776345;79;21728;-68
2021/04/25 01:43:30;;;;;;;10.68;6.75;;;;;;;11.11;53.18;101196.70;1785226;79;21250;-52
2021/04/25 01:45:57;;;;;;;8.83;6.28;;;;;;;11.11;53.18;101199.34;1802669;79;21112;-68
2021/04/25 01:48:25;;;;;;;10.72;6.12;;;;;;;11.09;53.10;101201.95;1796208;79;21598;-68
2021/04/25 01:50:53;;;;;;;10.70;6.58;;;;;;;11.10;53.10;101203.71;1771114;81;21676;-52
2021/04/25 01:53:20;;;;;;;8.30;5.55;;;;;;;11.09;53.17;101199.78;1765461;80;21313;-52
2021/04/25 01:55:48;;;;;;;7.20;5.30;;;;;;;11.12;53.30;101186.60;1754797;80;21158;-69
2021/04/25 01:58:16;;;;;;;9.70;5.97;;;;;;;11.13;53.36;101185.27;1764352;80;21580;-68
2021/04/25 02:00:45;;;;;;;10.95;6.30;;;;;;;11.15;53.46;101183.97;1780671;80;21122;-52
2021/04/25 02:03:14;;;;;;;9.70;6.47;;;;;;;11.16;53.44;101187.90;1785214;80;21138;-52
2021/04/25 02:05:43;;;;;;;11.40;6.75;;;;;;;11.15;53.25;101193.19;1784331;80;21138;-52
2021/04/25 02:08:12;;;;;;;8.95;5.97;;;;;;;11.14;53.36;101196.70;1781996;80;21122;-52
2021/04/25 02:10:41;;;;;;;10.10;7.22;;;;;;;11.10;52.88;101200.22;1785372;80;21126;-52
2021/04/25 02:13:09;;;;;;;8.70;6.20;;;;;;;10.79;52.57;101198.47;1785265;80;21170;-68
2021/04/25 02:15:37;;;;;;;10.75;6.20;;;;;;;10.65;51.77;101199.80;1782600;80;21141;-68
2021/04/25 02:18:05;;;;;;;10.13;5.70;;;;;;;10.61;51.85;101199.35;1759987;80;21134;-68
2021/04/25 02:20:33;;;;;;;8.25;5.97;;;;;;;10.59;51.99;101196.30;1754625;82;21154;-68
2021/04/25 02:23:01;;;;;;;11.73;6.83;;;;;;;10.63;52.14;101204.60;1754280;81;21130;-69
2021/04/25 02:25:29;;;;;;;13.20;7.00;;;;;;;10.63;52.45;101198.02;1781638;80;21621;-68
2021/04/25 02:27:57;;;;;;;10.10;6.55;;;;;;;10.62;52.27;101198.47;1757056;80;21340;-52
2021/04/25 02:30:31;;;;;;;10.72;6.83;;;;;;;10.64;52.50;101199.78;1754658;81;21440;-52
2021/04/25 02:32:59;;;;;;;11.75;6.65;;;;;;;10.65;52.54;101203.74;1763362;80;21273;-52
2021/04/25 02:35:28;;;;;;;10.78;6.95;;;;;;;10.68;52.79;101212.06;1782822;80;21134;-68
2021/04/25 02:37:56;;;;;;;13.95;7.60;;;;;;;10.70;53.19;101210.31;1762251;80;21166;-52
2021/04/25 02:40:26;;;;;;;13.65;8.28;;;;;;;10.73;53.37;101205.05;1754448;81;21146;-52
2021/04/25 02:42:54;;;;;;;13.63;7.67;;;;;;;10.77;53.55;101205.50;1772109;80;21312;-52
2021/04/25 02:45:22;;;;;;;12.18;7.60;;;;;;;10.78;53.65;101208.56;1777058;80;21700;-52
2021/04/25 02:47:55;;;;;;;15.05;8.95;;;;;;;10.80;53.52;101205.95;1785126;80;21134;-68
2021/04/25 02:50:26;;;;;;;14.40;8.48;;;;;;;10.81;53.37;101199.35;1785285;80;21166;-52
2021/04/25 02:52:54;;;;;;;14.75;7.80;;;;;;;10.85;53.75;101193.63;1755783;80;21697;-67
2021/04/25 02:55:24;;;;;;;14.45;8.98;;;;;;;10.88;53.96;101188.82;1752095;80;21094;-68
2021/04/25 02:57:51;;;;;;;23.05;8.13;;;;;;;10.88;53.82;101184.41;1751279;82;21187;-68
2021/04/25 03:00:23;;;;;;;12.88;7.78;;;;;;;10.91;53.88;101184.88;1756361;80;21098;-52
2021/04/25 03:02:51;;;;;;;14.53;7.85;;;;;;;10.93;53.99;101180.48;1778133;80;21578;-52
2021/04/25 03:05:19;;;;;;;13.22;7.83;;;;;;;10.98;54.19;101175.64;1758305;80;21134;-52
2021/04/25 03:07:48;;;;;;;13.62;8.35;;;;;;;11.03;54.38;101178.28;1751167;82;21172;-51
2021/04/25 03:10:17;;;;;;;13.60;7.97;;;;;;;11.07;54.50;101176.05;1763984;80;21114;-68
2021/04/25 03:12:46;;;;;;;16.57;8.93;;;;;;;11.10;54.47;101171.23;1776971;80;21181;-68
2021/04/25 03:15:15;;;;;;;14.33;8.63;;;;;;;11.12;54.61;101178.24;1764839;80;21162;-69
2021/04/25 03:17:43;;;;;;;13.43;8.48;;;;;;;11.16;54.53;101173.86;1751249;82;21379;-67
2021/04/25 03:20:12;;;;;;;10.05;7.40;;;;;;;11.19;54.40;101175.17;1773385;80;21549;-52
2021/04/25 03:22:40;;;;;;;11.12;6.37;;;;;;;11.21;53.70;101176.48;1756228;80;21130;-68
2021/04/25 03:25:10;;;;;;;10.58;6.37;;;;;;;11.23;52.79;101171.66;1782299;80;21170;-52
2021/04/25 03:27:39;;;;;;;10.60;5.83;;;;;;;11.23;52.16;101172.97;1781659;80;21774;-52
2021/04/25 03:30:09;;;;;;;12.23;6.20;;;;;;;11.27;51.90;101165.92;1775538;80;21162;-67
2021/04/25 03:32:36;;;;;;;10.25;5.87;;;;;;;11.28;50.84;101172.50;1782416;80;21688;-52
2021/04/25 03:35:06;;;;;;;10.50;6.10;;;;;;;11.31;50.25;101174.27;1779951;80;21297;-51
2021/04/25 03:37:35;;;;;;;9.83;6.15;;;;;;;11.34;50.16;101176.00;1765851;80;21183;-67
2021/04/25 03:40:05;;;;;;;12.00;6.53;;;;;;;11.37;50.16;101178.20;1765470;80;21589;-51
2021/04/25 03:42:32;;;;;;;9.33;6.00;;;;;;;11.38;50.16;101186.55;1699567;83;21335;-52
2021/04/25 03:45:03;;;;;;;15.95;6.10;;;;;;;11.41;50.40;101193.13;1700070;84;21391;-51
2021/04/25 03:47:31;;;;;;;23.27;7.75;;;;;;;11.42;50.67;101194.89;1710043;83;21155;-51
2021/04/25 03:49:59;;;;;;;26.55;6.60;;;;;;;11.45;50.78;101194.88;1728752;82;21147;-51
2021/04/25 03:52:26;;;;;;;15.25;6.83;;;;;;;11.49;50.82;101203.64;1764613;80;21121;-66
2021/04/25 03:54:54;;;;;;;24.82;8.95;;;;;;;11.52;51.21;101212.87;1701607;82;21605;-52
2021/04/25 03:57:22;;;;;;;21.15;7.35;;;;;;;11.50;51.55;101206.72;1732973;82;21228;-64
2021/04/25 03:59:49;;;;;;;18.82;6.97;;;;;;;11.47;52.25;101214.63;1770506;80;21440;-64
2021/04/25 04:02:17;;;;;;;15.23;6.00;;;;;;;11.45;52.46;101215.08;1702353;83;21156;-63
2021/04/25 04:04:45;;;;;;;22.98;8.25;;;;;;;11.44;52.69;101219.48;1705540;83;21182;-52
2021/04/25 04:07:12;;;;;;;17.65;6.90;;;;;;;11.45;52.83;101227.83;1735909;82;21707;-53
2021/04/25 04:09:40;;;;;;;18.80;7.28;;;;;;;11.42;53.25;101226.52;1768373;80;21545;-64
2021/04/25 04:12:08;;;;;;;19.05;7.30;;;;;;;11.36;53.26;101223.89;1768287;80;21134;-53
2021/04/25 04:14:36;;;;;;;15.40;6.70;;;;;;;11.37;53.54;101227.39;1703062;83;21099;-53
2021/04/25 04:17:04;;;;;;;13.10;5.22;;;;;;;11.44;53.49;101227.39;1738854;82;21131;-54
2021/04/25 04:19:32;;;;;;;16.55;6.00;;;;;;;11.42;52.89;101222.98;1707410;83;21158;-54
2021/04/25 04:22:02;;;;;;;21.90;8.15;;;;;;;11.48;53.24;101220.80;1693422;83;21665;-62
2021/04/25 04:24:31;;;;;;;15.28;6.80;;;;;;;11.53;53.66;101217.68;1728820;82;21139;-62
2021/04/25 04:26:59;;;;;;;16.25;6.47;;;;;;;11.62;53.98;101218.12;1754132;80;21146;-62
2021/04/25 04:29:28;;;;;;;12.65;6.28;;;;;;;11.68;54.36;101211.51;1756517;80;21169;-62
2021/04/25 04:31:56;;;;;;;11.40;5.87;;;;;;;11.74;54.38;101211.45;1775490;80;21565;-54
2021/04/25 04:34:24;;;;;;;15.23;6.60;;;;;;;11.79;54.33;101211.00;1760747;80;21162;-52
2021/04/25 04:36:52;;;;;;;15.48;7.28;;;;;;;11.89;54.59;101210.55;1754488;80;21596;-54
2021/04/25 04:39:20;;;;;;;9.80;5.05;;;;;;;11.98;54.89;101212.25;1775419;80;21126;-61
2021/04/25 04:41:49;;;;;;;8.23;5.20;;;;;;;12.03;53.98;101209.19;1782151;80;21131;-62
2021/04/25 04:44:18;;;;;;;8.53;3.90;;;;;;;12.01;53.76;101217.09;1713782;82;21151;-52
2021/04/25 04:46:45;;;;;;;9.00;4.37;;;;;;;11.74;53.89;101217.63;1769827;80;21106;-62
2021/04/25 04:49:13;;;;;;;7.85;5.25;;;;;;;11.77;53.94;101220.68;1766523;80;21110;-53
2021/04/25 04:51:42;;;;;;;8.43;4.70;;;;;;;11.82;54.54;101220.22;1770090;80;21154;-62
2021/04/25 04:54:10;;;;;;;9.60;4.67;;;;;;;11.84;54.12;101219.78;1703555;83;21182;-63
2021/04/25 04:56:40;;;;;;;12.98;6.87;;;;;;;11.85;53.53;101226.81;1705773;83;21182;-63
2021/04/25 04:59:08;;;;;;;9.65;6.47;;;;;;;11.79;53.88;101216.28;1716932;83;21174;-52
2021/04/25 05:01:36;;;;;;;11.03;6.42;;;;;;;11.75;53.83;101226.40;1700037;82;21211;-53
2021/04/25 05:04:05;;;;;;;11.83;6.60;;;;;;;11.70;53.64;101218.52;1716265;83;21162;-63
2021/04/25 05:06:33;;;;;;;8.10;6.17;;;;;;;11.70;53.70;101221.61;1687540;85;21227;-63
2021/04/25 05:09:00;;;;;;;9.78;6.60;;;;;;;11.71;53.93;101225.97;1716302;82;21714;-62
2021/04/25 05:11:28;;;;;;;9.73;7.10;;;;;;;11.98;53.25;101219.71;1705587;84;21196;-53
2021/04/25 05:13:55;;;;;;;8.25;5.90;;;;;;;12.11;52.78;101224.55;1721385;82;21325;-63
2021/04/25 05:16:23;;;;;;;27.30;15.40;;;;;;;12.17;52.55;101215.70;1734543;82;21324;-63
2021/04/25 05:18:51;;;;;;;34.83;19.57;;;;;;;12.27;52.27;101207.28;1739561;82;21151;-52
2021/04/25 05:21:19;;;;;;;23.07;14.65;;;;;;;12.23;52.46;101214.78;1751106;82;21100;-52
2021/04/25 05:23:48;;;;;;;13.95;9.20;;;;;;;12.43;52.13;101206.73;1751067;82;21167;-52
2021/04/25 05:26:16;;;;;;;10.32;6.33;;;;;;;12.44;52.08;101206.75;1748146;82;21164;-52
2021/04/25 05:28:45;;;;;;;8.18;5.70;;;;;;;12.42;51.93;101207.20;1727564;82;21136;-63
2021/04/25 05:31:13;;;;;;;8.55;5.12;;;;;;;12.39;52.14;101208.96;1719903;83;21296;-63
2021/04/25 05:33:40;;;;;;;8.48;5.17;;;;;;;12.33;52.09;101207.25;1736363;83;21126;-63
2021/04/25 05:36:08;;;;;;;7.92;5.28;;;;;;;12.29;52.02;101206.83;1716031;82;21599;-52
2021/04/25 05:38:36;;;;;;;8.65;4.92;;;;;;;12.29;52.08;101208.16;1719780;83;21577;-52
2021/04/25 05:41:04;;;;;;;9.98;4.58;;;;;;;12.30;51.64;101212.13;1705852;84;21328;-64
2021/04/25 05:43:34;;;;;;;5.65;4.15;;;;;;;12.31;51.73;101207.70;1721479;83;21135;-53
2021/04/25 05:46:02;;;;;;;9.33;4.50;;;;;;;12.34;51.58;101207.69;1742454;82;21226;-52
2021/04/25 05:48:30;;;;;;;8.55;5.33;;;;;;;12.38;51.44;101208.10;1751290;82;21147;-64
2021/04/25 05:50:58;;;;;;;5.95;4.12;;;;;;;12.43;51.42;101212.91;1751127;82;21507;-64
2021/04/25 05:53:26;;;;;;;6.78;4.42;;;;;;;12.42;50.89;101214.22;1749260;82;21095;-53
2021/04/25 05:55:54;;;;;;;6.37;4.25;;;;;;;12.42;50.81;101218.19;1724655;82;21115;-53
2021/04/25 05:58:22;;;;;;;7.80;4.65;;;;;;;12.41;50.81;101213.36;1754342;82;21275;-64
2021/04/25 06:00:50;;;;;;;8.75;5.53;;;;;;;12.41;50.78;101218.64;1762506;80;21166;-64
2021/04/25 06:03:17;;;;;;;8.45;5.60;;;;;;;12.52;50.78;101221.66;1764169;80;21190;-63
2021/04/25 06:05:45;;;;;;;7.15;5.42;;;;;;;12.54;50.87;101220.75;1756564;80;21146;-53
2021/04/25 06:08:13;;;;;;;8.68;5.33;;;;;;;12.59;50.81;101229.52;1785281;80;21137;-63
2021/04/25 06:10:40;;;;;;;6.92;4.97;;;;;;;12.57;50.76;101220.73;1785187;80;21170;-54
2021/04/25 06:13:08;;;;;;;8.58;5.05;;;;;;;12.48;50.99;101225.64;1779182;80;21138;-64
2021/04/25 06:15:38;;;;;;;10.43;6.15;;;;;;;12.45;51.46;101224.34;1785161;80;21683;-64
2021/04/25 06:18:06;;;;;;;10.13;6.42;;;;;;;12.48;51.89;101220.79;1783074;80;21248;-64
2021/04/25 06:20:34;;;;;;;7.35;5.15;;;;;;;12.57;52.18;101222.52;1762260;80;21141;-54
2021/04/25 06:23:01;;;;;;;10.43;6.97;;;;;;;12.56;52.06;101220.75;1778446;80;21271;-54
2021/04/25 06:25:29;;;;;;;12.15;7.62;;;;;;;12.58;52.25;101218.52;1754282;81;21188;-54
2021/04/25 06:27:57;;;;;;;15.05;8.75;;;;;;;12.66;52.53;101220.23;1782099;80;21154;-65
2021/04/25 06:30:25;;;;;;;16.73;10.72;;;;;;;12.73;53.13;101218.84;1785312;80;21146;-54
2021/04/25 06:32:53;;;;;;;17.35;11.12;;;;;;;12.78;54.17;101214.41;1759585;80;21551;-54
2021/04/25 06:35:21;;;;;;;21.33;11.50;;;;;;;12.95;54.12;101209.44;1754253;82;21182;-53
2021/04/25 06:37:49;;;;;;;24.40;13.43;;;;;;;12.99;54.68;101211.59;1754787;82;21148;-54
2021/04/25 06:40:17;;;;;;;27.90;15.32;;;;;;;13.08;55.03;101205.77;1781918;80;21129;-65
2021/04/25 06:42:45;;;;;;;22.37;15.38;;;;;;;13.15;55.36;101205.28;1772301;80;21102;-54
2021/04/25 06:45:20;;;;;;;31.65;20.50;;;;;;;13.21;55.61;101210.95;1773387;80;21296;-64
2021/04/25 06:47:48;;;;;;;25.57;18.65;;;;;;;13.29;55.82;101215.72;1754172;82;21183;-54
2021/04/25 06:50:18;;;;;;;30.72;18.73;;;;;;;13.36;56.05;101212.55;1761387;80;21608;-53
2021/04/25 06:52:46;;;;;;;25.30;18.15;;;;;;;13.40;56.30;101218.23;1754441;82;21626;-64
2021/04/25 06:55:17;;;;;;;23.92;16.93;;;;;;;13.46;56.48;101210.28;1737623;81;21279;-53
2021/04/25 06:57:46;;;;;;;27.27;18.57;;;;;;;13.55;56.66;101208.42;1760196;81;21606;-53
2021/04/25 07:00:16;;;;;;;28.40;19.75;;;;;;;13.76;56.52;101205.98;1766587;80;21173;-64
2021/04/25 07:02:44;;;;;;;19.42;14.78;;;;;;;13.85;56.61;101206.30;1779631;80;21289;-54
2021/04/25 07:05:12;;;;;;;19.30;14.85;;;;;;;14.00;56.42;101198.17;1765983;79;21170;-64
2021/04/25 07:07:40;;;;;;;21.07;14.30;;;;;;;14.17;56.47;101193.06;1786437;80;21621;-54
2021/04/25 07:10:09;;;;;;;17.37;13.55;;;;;;;14.36;56.46;101197.21;1772184;79;21153;-53
2021/04/25 07:12:38;;;;;;;9.88;7.22;;;;;;;14.57;56.37;101197.33;1760016;80;21295;-53
2021/04/25 07:15:07;;;;;;;11.45;6.17;;;;;;;14.82;55.62;101191.64;1759943;81;21157;-64
2021/04/25 07:17:36;;;;;;;13.83;10.00;;;;;;;14.96;55.80;101194.08;1766585;80;21669;-64
2021/04/25 07:20:06;;;;;;;20.40;11.40;;;;;;;15.15;55.51;101195.95;1762106;80;21553;-54
2021/04/25 07:22:35;;;;;;;14.90;9.13;;;;;;;15.34;55.64;101187.62;1759922;81;21287;-64
2021/04/25 07:25:05;;;;;;;8.55;6.12;;;;;;;15.53;55.34;101191.27;1759956;81;21605;-54
2021/04/25 07:27:34;;;;;;;14.07;7.60;;;;;;;15.62;53.32;101187.11;1766940;80;21650;-65
2021/04/25 07:30:04;;;;;;;8.28;5.75;;;;;;;15.70;54.03;101193.56;1788364;80;21585;-66
2021/04/25 07:32:32;;;;;;;7.83;5.55;;;;;;;15.69;51.74;101196.66;1790667;80;21195;-66
2021/04/25 07:35:00;;;;;;;11.63;7.15;;;;;;;15.51;50.52;101198.38;1788975;79;21129;-54
2021/04/25 07:37:28;;;;;;;9.50;6.33;;;;;;;15.48;51.68;101199.30;1791121;79;21158;-66
2021/04/25 07:39:55;;;;;;;8.73;5.92;;;;;;;15.59;52.00;101200.43;1788817;79;21304;-53
2021/04/25 07:42:23;;;;;;;8.85;6.00;;;;;;;15.63;50.53;101203.45;1791129;79;21607;-66
2021/04/25 07:44:51;;;;;;;10.30;6.05;;;;;;;15.56;51.07;101209.30;1782993;79;21596;-53
2021/04/25 07:47:19;;;;;;;8.10;5.83;;;;;;;15.58;51.75;101205.31;1768507;80;21286;-53
2021/04/25 07:49:47;;;;;;;8.20;5.80;;;;;;;15.44;49.07;101206.92;1791159;79;21161;-68
2021/04/25 07:52:15;;;;;;;7.72;5.90;;;;;;;15.31;50.10;101207.58;1791155;80;21150;-68
2021/04/25 07:54:44;;;;;;;8.10;5.28;;;;;;;15.22;50.71;101209.96;1774598;79;21120;-52
2021/04/25 07:57:13;;;;;;;7.90;5.20;;;;;;;15.10;50.17;101204.44;1773240;79;21204;-52
2021/04/25 07:59:41;;;;;;;8.50;5.35;;;;;;;15.00;50.84;101205.49;1802292;79;21159;-67
2021/04/25 08:02:09;;;;;;;10.45;5.42;;;;;;;14.96;50.75;101208.66;1776266;79;21721;-54
2021/04/25 08:04:37;;;;;;;8.10;5.37;;;;;;;14.75;49.78;101212.98;1792400;79;21144;-67
2021/04/25 08:07:05;;;;;;;11.80;5.62;;;;;;;14.60;50.29;101209.64;1794377;79;21182;-54
2021/04/25 08:09:33;;;;;;;6.35;4.55;;;;;;;14.62;49.87;101206.52;1782997;79;21112;-54
2021/04/25 08:12:04;;;;;;;6.35;4.70;;;;;;;14.45;50.48;101204.13;1778454;79;21135;-66
2021/04/25 08:14:32;;;;;;;8.75;5.22;;;;;;;14.36;51.22;101203.83;1787719;79;21270;-68
2021/04/25 08:16:59;;;;;;;7.22;4.97;;;;;;;14.33;51.59;101200.37;1802555;79;21161;-67
2021/04/25 08:19:27;;;;;;;10.18;7.10;;;;;;;14.26;52.00;101200.45;1802911;79;21592;-66
2021/04/25 08:21:55;;;;;;;10.70;7.62;;;;;;;14.20;53.27;101199.22;1795493;79;21574;-67
2021/04/25 08:24:23;;;;;;;11.38;8.03;;;;;;;14.16;54.16;101192.64;1802566;79;21606;-54
2021/04/25 08:26:52;;;;;;;10.70;7.80;;;;;;;14.15;54.84;101193.54;1802383;79;21159;-53
2021/04/25 08:29:21;;;;;;;13.83;9.63;;;;;;;14.07;55.99;101185.28;1801759;79;21147;-54
2021/04/25 08:31:49;;;;;;;15.72;10.93;;;;;;;14.12;55.91;101187.42;1795874;79;21562;-54
2021/04/25 08:34:16;;;;;;;14.05;10.72;;;;;;;14.02;56.39;101182.25;1802783;79;21551;-66
2021/04/25 08:36:44;;;;;;;11.55;9.58;;;;;;;14.02;56.83;101177.85;1802613;79;21590;-67
2021/04/25 08:39:12;;;;;;;12.33;9.53;;;;;;;14.07;57.67;101177.77;1795800;79;21143;-53
2021/04/25 08:41:40;;;;;;;12.80;8.68;;;;;;;13.98;57.68;101166.41;1802523;79;21188;-52
2021/04/25 08:44:09;;;;;;;10.72;7.83;;;;;;;14.01;57.83;101167.27;1802575;79;21159;-54
2021/04/25 08:46:36;;;;;;;10.80;7.03;;;;;;;14.02;57.61;101156.67;1798110;79;21159;-53
2021/04/25 08:49:05;;;;;;;9.23;6.47;;;;;;;14.13;56.80;101151.22;1778373;79;21124;-66
2021/04/25 08:51:35;;;;;;;8.95;5.92;;;;;;;14.24;56.09;101144.00;1770982;80;21180;-52
2021/04/25 08:54:03;;;;;;;10.88;6.60;;;;;;;14.34;55.69;101143.39;1771078;81;21159;-65
2021/04/25 08:56:31;;;;;;;12.90;7.65;;;;;;;14.34;54.23;101135.92;1790699;79;21594;-51
2021/04/25 08:58:59;;;;;;;9.20;6.50;;;;;;;14.52;55.00;101134.73;1769546;79;21257;-63
2021/04/25 09:01:27;;;;;;;9.88;7.28;;;;;;;14.82;55.68;101129.83;1780347;79;21165;-54
2021/04/25 09:03:54;;;;;;;8.93;6.55;;;;;;;15.01;52.90;101127.72;1773895;81;21554;-66
2021/04/25 09:06:24;;;;;;;8.70;6.55;;;;;;;15.08;52.10;101127.14;1783157;79;21192;-65
2021/04/25 09:11:35;;;;;;;11.25;7.35;;;;;;;15.40;53.55;101111.92;1824001;77;22193;-51
2021/04/25 09:14:23;;;;;;;14.65;7.15;;;;;;;15.73;52.62;101107.26;1761947;81;21280;-65
2021/04/25 09:17:00;;;;;;;8.20;6.00;;;;;;;16.16;53.85;101104.97;1743322;81;21158;-49
2021/04/25 09:19:56;;;;;;;13.95;6.55;;;;;;;16.62;50.99;101100.74;1731760;81;21183;-65
2021/04/25 09:22:45;;;;;;;10.32;6.30;;;;;;;16.89;48.62;101096.92;1725291;81;21543;-52
2021/04/25 09:25:15;;;;;;;9.58;4.92;;;;;;;17.15;48.85;101096.70;1745174;80;21148;-52
2021/04/25 09:27:44;;;;;;;7.47;5.37;;;;;;;17.33;47.05;101095.30;1751014;81;21130;-65
2021/04/25 09:30:13;;;;;;;10.28;6.40;;;;;;;17.58;46.99;101085.25;1759458;81;21166;-53
2021/04/25 09:32:42;;;;;;;10.15;5.70;;;;;;;17.72;46.36;101080.82;1728535;83;21328;-54
2021/04/25 09:35:19;;;;;;;12.45;5.40;;;;;;;17.88;46.00;101071.92;1673870;84;21600;-64
2021/04/25 09:37:49;;;;;;;10.72;5.40;;;;;;;18.08;44.46;101073.97;1700880;83;21157;-66
2021/04/25 09:40:25;;;;;;;8.87;5.53;;;;;;;18.30;45.06;101055.92;1686561;85;21155;-65
2021/04/25 09:43:13;;;;;;;10.05;5.33;;;;;;;18.44;44.15;101057.67;1692311;83;21193;-53
2021/04/25 09:45:57;;;;;;;10.43;5.10;;;;;;;18.52;44.15;101061.39;1706137;84;21175;-66
2021/04/25 09:48:35;;;;;;;8.75;5.05;;;;;;;18.83;43.68;101046.96;1686719;85;21558;-64
2021/04/25 09:51:22;;;;;;;9.18;4.40;;;;;;;19.01;42.43;101045.45;1686310;84;21212;-54
2021/04/25 09:53:56;;;;;;;8.28;4.67;;;;;;;19.08;40.54;101042.96;1714382;84;21155;-53
2021/04/25 09:56:39;;;;;;;7.35;4.10;;;;;;;19.16;41.29;101038.69;1697048;83;21648;-66
2021/04/25 09:59:08;;;;;;;7.45;4.20;;;;;;;19.19;40.58;101036.36;1697005;84;21170;-66
2021/04/25 10:01:39;;;;;;;7.30;4.70;;;;;;;19.19;39.93;101035.02;1703243;82;21164;-64
2021/04/25 10:04:37;;;;;;;8.35;4.30;;;;;;;19.18;40.58;101030.17;1704453;83;21147;-52
2021/04/25 10:07:07;;;;;;;9.15;4.30;;;;;;;19.15;40.77;101024.47;1696705;83;21223;-64
2021/04/25 10:09:35;;;;;;;;;;;;;;;18.98;40.76;101016.25;1698523;83;21207;-64
2021/04/25 10:12:04;;;;;;;8.68;5.08;;;;;;;18.84;40.46;101024.25;1707365;82;20179;-54
2021/04/25 10:14:33;;;;;;;9.15;4.90;;;;;;;18.67;40.88;101029.31;1684946;83;21171;-65
2021/04/25 10:17:03;;;;;;;6.75;3.85;;;;;;;18.46;40.64;101016.29;1726708;82;21170;-65
2021/04/25 10:19:31;;;;;;;9.27;4.30;;;;;;;18.29;41.53;101013.77;1735029;82;21135;-52
2021/04/25 10:21:59;;;;;;;7.35;4.28;;;;;;;18.38;42.61;101005.43;1736437;82;21821;-65
2021/04/25 10:24:27;;;;;;;8.50;4.97;;;;;;;18.63;41.53;101008.58;1756137;82;21137;-53
2021/04/25 10:27:08;;;;;;;9.73;4.20;;;;;;;18.37;42.20;101005.50;1756110;80;21171;-53
2021/04/25 10:29:51;;;;;;;8.95;4.75;;;;;;;18.61;40.99;101001.54;1741897;81;21170;-66
2021/04/25 10:32:20;;;;;;;7.75;4.50;;;;;;;18.55;41.98;100999.50;1731817;82;21188;-64
2021/04/25 10:34:50;;;;;;;7.20;4.50;;;;;;;18.74;42.48;100992.17;1726155;83;21241;-64
2021/04/25 10:37:21;;;;;;;7.33;4.33;;;;;;;18.90;41.96;100993.81;1710886;82;21784;-65
2021/04/25 10:39:50;;;;;;;;;;;;;;;19.07;40.22;100990.53;1732322;82;21273;-53
2021/04/25 10:42:28;;;;;;;10.15;5.70;;;;;;;19.11;40.17;100981.97;1756052;82;20172;-54
2021/04/25 10:45:16;;;;;;;6.65;4.25;;;;;;;19.07;40.77;100977.67;1756386;82;21578;-53
2021/04/25 10:47:40;;;;;;;30.25;18.15;;;;;;;19.16;40.37;100970.66;1742171;81;21577;-65
2021/04/25 10:50:20;;;;;;;10.20;5.10;;;;;;;19.24;40.25;100967.67;1727654;82;21178;-53
2021/04/25 10:52:52;;;;;;;8.00;3.27;;;;;;;18.94;38.07;100976.77;1726579;82;21177;-64
2021/04/25 10:55:25;;;;;;;8.93;3.87;;;;;;;18.80;38.87;100973.29;1728256;81;21143;-65
2021/04/25 10:58:01;;;;;;;6.58;3.60;;;;;;;18.61;38.89;100971.77;1731762;80;21142;-54
2021/04/25 11:00:40;;;;;;;10.93;5.53;;;;;;;18.53;38.93;100977.84;1747709;82;21144;-54
2021/04/25 11:03:15;;;;;;;8.13;4.28;;;;;;;18.50;39.88;100971.28;1756430;82;21507;-65
2021/04/25 11:05:44;;;;;;;5.47;3.22;;;;;;;18.46;38.82;100967.88;1749321;80;21146;-65
2021/04/25 11:08:32;;;;;;;7.70;3.62;;;;;;;18.49;38.43;100966.88;1745412;82;21170;-54
2021/04/25 11:11:09;;;;;;;7.05;3.27;;;;;;;18.32;39.10;100957.70;1759118;81;21296;-53
2021/04/25 11:13:47;;;;;;;6.15;3.45;;;;;;;18.46;38.99;100954.98;1760064;80;21582;-54
2021/04/25 11:16:20;;;;;;;8.50;3.80;;;;;;;18.38;38.92;100948.14;1751080;81;21127;-65
2021/04/25 11:19:06;;;;;;;6.40;3.95;;;;;;;18.25;38.88;100944.19;1742745;81;21146;-53
2021/04/25 11:21:49;;;;;;;6.67;3.65;;;;;;;18.13;39.58;100953.45;1761444;81;21134;-54
2021/04/25 11:24:28;;;;;;;13.75;5.65;;;;;;;17.84;39.10;100950.87;1745670;81;21123;-54
2021/04/25 11:27:00;;;;;;;9.83;4.58;;;;;;;17.80;38.89;100937.69;1739150;81;21143;-56
2021/04/25 11:29:39;;;;;;;8.58;4.05;;;;;;;17.85;39.01;100934.41;1761472;81;21139;-64
2021/04/25 11:32:07;;;;;;;5.97;3.87;;;;;;;17.94;39.85;100930.55;1757634;80;21156;-66
2021/04/25 11:34:55;;;;;;;7.83;3.60;;;;;;;18.10;39.27;100925.63;1733123;82;21516;-54